sensor_id;sensor_type;location;lat;lon;timestamp;P1;durP1;ratioP1;P2;durP2;ratioP2
47481;SDS011;33219;47.410;9.730;2023-09-19T00:01:46;3.42;;;1.40;;
47481;SDS011;33219;47.410;9.730;2023-09-19T00:04:14;3.87;;;1.60;;
47481;SDS011;33219;47.410;9.730;2023-09-19T00:06:41;3.25;;;1.77;;
47481;SDS011;33219;47.410;9.730;2023-09-19T00:09:10;2.70;;;1.57;;
47481;SDS011;33219;47.410;9.730;2023-09-19T00:11:37;3.70;;;1.50;;
47481;SDS011;33219;47.410;9.730;2023-09-19T00:14:05;4.20;;;1.42;;
47481;SDS011;33219;47.410;9.730;2023-09-19T00:16:34;2.42;;;1.50;;
47481;SDS011;33219;47.410;9.730;2023-09-19T00:19:02;4.92;;;1.80;;
47481;SDS011;33219;47.410;9.730;2023-09-19T00:21:31;2.80;;;1.30;;
47481;SDS011;33219;47.410;9.730;2023-09-19T00:23:58;3.55;;;1.62;;
47481;SDS011;33219;47.410;9.730;2023-09-19T00:26:26;2.40;;;1.42;;
47481;SDS011;33219;47.410;9.730;2023-09-19T00:28:55;3.35;;;1.65;;
47481;SDS011;33219;47.410;9.730;2023-09-19T00:31:23;2.85;;;1.52;;
47481;SDS011;33219;47.410;9.730;2023-09-19T00:33:51;1.92;;;1.10;;
47481;SDS011;33219;47.410;9.730;2023-09-19T00:36:19;2.77;;;1.62;;
47481;SDS011;33219;47.410;9.730;2023-09-19T00:38:46;2.98;;;1.22;;
47481;SDS011;33219;47.410;9.730;2023-09-19T00:41:14;2.52;;;1.07;;
47481;SDS011;33219;47.410;9.730;2023-09-19T00:43:41;2.58;;;1.37;;
47481;SDS011;33219;47.410;9.730;2023-09-19T00:46:09;2.00;;;1.22;;
47481;SDS011;33219;47.410;9.730;2023-09-19T00:48:38;2.22;;;1.30;;
47481;SDS011;33219;47.410;9.730;2023-09-19T00:51:08;2.65;;;1.25;;
47481;SDS011;33219;47.410;9.730;2023-09-19T00:53:37;1.82;;;1.27;;
47481;SDS011;33219;47.410;9.730;2023-09-19T00:56:06;1.45;;;0.90;;
47481;SDS011;33219;47.410;9.730;2023-09-19T00:58:34;1.67;;;1.12;;
47481;SDS011;33219;47.410;9.730;2023-09-19T01:01:03;1.65;;;1.00;;
47481;SDS011;33219;47.410;9.730;2023-09-19T01:03:36;2.20;;;1.30;;
47481;SDS011;33219;47.410;9.730;2023-09-19T01:06:04;3.10;;;1.20;;
47481;SDS011;33219;47.410;9.730;2023-09-19T01:08:33;2.55;;;1.07;;
47481;SDS011;33219;47.410;9.730;2023-09-19T01:13:55;1.67;;;1.00;;
47481;SDS011;33219;47.410;9.730;2023-09-19T01:19:26;3.30;;;1.00;;
47481;SDS011;33219;47.410;9.730;2023-09-19T01:22:13;1.52;;;0.98;;
47481;SDS011;33219;47.410;9.730;2023-09-19T01:30:31;3.00;;;1.10;;
47481;SDS011;33219;47.410;9.730;2023-09-19T01:32:59;1.80;;;1.20;;
47481;SDS011;33219;47.410;9.730;2023-09-19T01:35:27;2.95;;;1.07;;
47481;SDS011;33219;47.410;9.730;2023-09-19T01:37:55;2.35;;;1.10;;
47481;SDS011;33219;47.410;9.730;2023-09-19T01:40:23;1.95;;;1.20;;
47481;SDS011;33219;47.410;9.730;2023-09-19T01:45:42;1.87;;;1.15;;
47481;SDS011;33219;47.410;9.730;2023-09-19T01:51:07;4.08;;;1.15;;
47481;SDS011;33219;47.410;9.730;2023-09-19T01:53:41;2.42;;;1.20;;
47481;SDS011;33219;47.410;9.730;2023-09-19T01:56:16;1.37;;;1.12;;
47481;SDS011;33219;47.410;9.730;2023-09-19T01:58:51;2.02;;;1.32;;
47481;SDS011;33219;47.410;9.730;2023-09-19T02:01:22;2.25;;;1.27;;
47481;SDS011;33219;47.410;9.730;2023-09-19T02:03:52;2.30;;;1.22;;
47481;SDS011;33219;47.410;9.730;2023-09-19T02:06:22;1.92;;;1.07;;
47481;SDS011;33219;47.410;9.730;2023-09-19T02:08:51;2.40;;;1.15;;
47481;SDS011;33219;47.410;9.730;2023-09-19T02:11:18;2.05;;;1.12;;
47481;SDS011;33219;47.410;9.730;2023-09-19T02:13:46;2.37;;;1.07;;
47481;SDS011;33219;47.410;9.730;2023-09-19T02:16:16;2.50;;;1.60;;
47481;SDS011;33219;47.410;9.730;2023-09-19T02:18:45;1.90;;;1.30;;
47481;SDS011;33219;47.410;9.730;2023-09-19T02:21:16;2.12;;;1.30;;
47481;SDS011;33219;47.410;9.730;2023-09-19T02:23:44;2.52;;;1.30;;
47481;SDS011;33219;47.410;9.730;2023-09-19T02:26:13;1.65;;;0.90;;
47481;SDS011;33219;47.410;9.730;2023-09-19T02:28:42;2.62;;;1.10;;
47481;SDS011;33219;47.410;9.730;2023-09-19T02:31:11;1.87;;;0.95;;
47481;SDS011;33219;47.410;9.730;2023-09-19T02:33:38;2.72;;;1.17;;
47481;SDS011;33219;47.410;9.730;2023-09-19T02:36:06;1.80;;;1.12;;
47481;SDS011;33219;47.410;9.730;2023-09-19T02:38:34;2.35;;;0.93;;
47481;SDS011;33219;47.410;9.730;2023-09-19T02:41:03;1.77;;;1.00;;
47481;SDS011;33219;47.410;9.730;2023-09-19T02:43:30;1.92;;;1.00;;
47481;SDS011;33219;47.410;9.730;2023-09-19T02:45:58;2.30;;;0.98;;
47481;SDS011;33219;47.410;9.730;2023-09-19T02:48:25;2.02;;;1.15;;
47481;SDS011;33219;47.410;9.730;2023-09-19T02:50:55;2.15;;;1.25;;
47481;SDS011;33219;47.410;9.730;2023-09-19T02:53:22;1.95;;;0.90;;
47481;SDS011;33219;47.410;9.730;2023-09-19T02:55:50;1.95;;;1.02;;
47481;SDS011;33219;47.410;9.730;2023-09-19T02:58:19;1.92;;;1.10;;
47481;SDS011;33219;47.410;9.730;2023-09-19T03:00:48;2.58;;;1.00;;
47481;SDS011;33219;47.410;9.730;2023-09-19T03:03:17;1.77;;;1.12;;
47481;SDS011;33219;47.410;9.730;2023-09-19T03:05:45;1.60;;;1.05;;
47481;SDS011;33219;47.410;9.730;2023-09-19T03:08:13;1.77;;;0.98;;
47481;SDS011;33219;47.410;9.730;2023-09-19T03:10:45;2.70;;;0.95;;
47481;SDS011;33219;47.410;9.730;2023-09-19T03:13:14;1.10;;;0.87;;
47481;SDS011;33219;47.410;9.730;2023-09-19T03:15:42;4.10;;;1.32;;
47481;SDS011;33219;47.410;9.730;2023-09-19T03:18:12;2.22;;;1.30;;
47481;SDS011;33219;47.410;9.730;2023-09-19T03:20:39;1.95;;;1.20;;
47481;SDS011;33219;47.410;9.730;2023-09-19T03:23:07;1.55;;;0.95;;
47481;SDS011;33219;47.410;9.730;2023-09-19T03:25:35;3.12;;;1.00;;
47481;SDS011;33219;47.410;9.730;2023-09-19T03:28:03;1.75;;;1.12;;
47481;SDS011;33219;47.410;9.730;2023-09-19T03:30:35;2.42;;;1.30;;
47481;SDS011;33219;47.410;9.730;2023-09-19T03:33:04;3.00;;;1.47;;
47481;SDS011;33219;47.410;9.730;2023-09-19T03:35:32;2.12;;;1.30;;
47481;SDS011;33219;47.410;9.730;2023-09-19T03:38:00;2.67;;;1.35;;
47481;SDS011;33219;47.410;9.730;2023-09-19T03:40:28;3.40;;;1.60;;
47481;SDS011;33219;47.410;9.730;2023-09-19T03:42:56;3.08;;;1.60;;
47481;SDS011;33219;47.410;9.730;2023-09-19T03:45:27;2.35;;;1.45;;
47481;SDS011;33219;47.410;9.730;2023-09-19T03:47:55;3.65;;;1.30;;
47481;SDS011;33219;47.410;9.730;2023-09-19T03:50:23;2.90;;;1.45;;
47481;SDS011;33219;47.410;9.730;2023-09-19T03:52:50;2.52;;;1.50;;
47481;SDS011;33219;47.410;9.730;2023-09-19T03:55:24;2.72;;;1.55;;
47481;SDS011;33219;47.410;9.730;2023-09-19T03:57:53;2.67;;;2.00;;
47481;SDS011;33219;47.410;9.730;2023-09-19T04:00:21;3.50;;;1.45;;
47481;SDS011;33219;47.410;9.730;2023-09-19T04:02:51;3.33;;;1.80;;
47481;SDS011;33219;47.410;9.730;2023-09-19T04:05:21;3.30;;;1.47;;
47481;SDS011;33219;47.410;9.730;2023-09-19T04:07:49;2.45;;;1.40;;
47481;SDS011;33219;47.410;9.730;2023-09-19T04:10:16;2.05;;;1.05;;
47481;SDS011;33219;47.410;9.730;2023-09-19T04:12:50;2.77;;;1.50;;
47481;SDS011;33219;47.410;9.730;2023-09-19T04:15:23;2.65;;;1.27;;
47481;SDS011;33219;47.410;9.730;2023-09-19T04:17:51;2.27;;;1.40;;
47481;SDS011;33219;47.410;9.730;2023-09-19T04:20:19;3.25;;;1.40;;
47481;SDS011;33219;47.410;9.730;2023-09-19T04:22:49;4.47;;;1.52;;
47481;SDS011;33219;47.410;9.730;2023-09-19T04:25:17;3.83;;;1.45;;
47481;SDS011;33219;47.410;9.730;2023-09-19T04:27:44;1.72;;;1.05;;
47481;SDS011;33219;47.410;9.730;2023-09-19T04:30:13;2.35;;;1.20;;
47481;SDS011;33219;47.410;9.730;2023-09-19T04:32:42;1.90;;;1.10;;
47481;SDS011;33219;47.410;9.730;2023-09-19T04:35:09;1.37;;;1.10;;
47481;SDS011;33219;47.410;9.730;2023-09-19T04:37:38;2.08;;;0.78;;
47481;SDS011;33219;47.410;9.730;2023-09-19T04:40:07;2.55;;;1.00;;
47481;SDS011;33219;47.410;9.730;2023-09-19T04:42:43;1.92;;;1.10;;
47481;SDS011;33219;47.410;9.730;2023-09-19T04:45:11;2.02;;;1.07;;
47481;SDS011;33219;47.410;9.730;2023-09-19T04:47:39;0.95;;;0.72;;
47481;SDS011;33219;47.410;9.730;2023-09-19T04:50:09;1.67;;;0.90;;
47481;SDS011;33219;47.410;9.730;2023-09-19T04:52:40;1.87;;;1.10;;
47481;SDS011;33219;47.410;9.730;2023-09-19T04:55:11;1.05;;;0.70;;
47481;SDS011;33219;47.410;9.730;2023-09-19T04:57:40;1.50;;;1.00;;
47481;SDS011;33219;47.410;9.730;2023-09-19T05:00:09;1.52;;;0.80;;
47481;SDS011;33219;47.410;9.730;2023-09-19T05:02:38;6.35;;;2.40;;
47481;SDS011;33219;47.410;9.730;2023-09-19T05:05:07;2.37;;;1.40;;
47481;SDS011;33219;47.410;9.730;2023-09-19T05:07:37;3.37;;;1.12;;
47481;SDS011;33219;47.410;9.730;2023-09-19T05:10:06;2.35;;;1.10;;
47481;SDS011;33219;47.410;9.730;2023-09-19T05:12:34;1.98;;;1.30;;
47481;SDS011;33219;47.410;9.730;2023-09-19T05:15:06;2.00;;;1.40;;
47481;SDS011;33219;47.410;9.730;2023-09-19T05:17:35;2.87;;;1.80;;
47481;SDS011;33219;47.410;9.730;2023-09-19T05:20:03;2.62;;;1.45;;
47481;SDS011;33219;47.410;9.730;2023-09-19T05:22:42;5.67;;;1.90;;
47481;SDS011;33219;47.410;9.730;2023-09-19T05:25:14;3.58;;;1.90;;
47481;SDS011;33219;47.410;9.730;2023-09-19T05:30:18;2.98;;;1.62;;
47481;SDS011;33219;47.410;9.730;2023-09-19T05:32:52;5.35;;;2.00;;
47481;SDS011;33219;47.410;9.730;2023-09-19T05:35:27;4.10;;;1.85;;
47481;SDS011;33219;47.410;9.730;2023-09-19T05:37:59;3.42;;;1.77;;
47481;SDS011;33219;47.410;9.730;2023-09-19T05:40:29;8.30;;;2.20;;
47481;SDS011;33219;47.410;9.730;2023-09-19T05:43:09;3.72;;;1.60;;
47481;SDS011;33219;47.410;9.730;2023-09-19T05:46:05;3.80;;;1.87;;
47481;SDS011;33219;47.410;9.730;2023-09-19T05:55:24;3.08;;;1.27;;
47481;SDS011;33219;47.410;9.730;2023-09-19T06:07:15;2.52;;;1.70;;
47481;SDS011;33219;47.410;9.730;2023-09-19T06:10:01;5.20;;;2.05;;
47481;SDS011;33219;47.410;9.730;2023-09-19T06:15:43;3.65;;;2.00;;
47481;SDS011;33219;47.410;9.730;2023-09-19T06:18:20;7.17;;;4.30;;
47481;SDS011;33219;47.410;9.730;2023-09-19T06:20:55;8.98;;;4.70;;
47481;SDS011;33219;47.410;9.730;2023-09-19T06:23:30;8.05;;;4.58;;
47481;SDS011;33219;47.410;9.730;2023-09-19T06:26:09;7.17;;;3.77;;
47481;SDS011;33219;47.410;9.730;2023-09-19T06:28:49;6.85;;;3.12;;
47481;SDS011;33219;47.410;9.730;2023-09-19T06:31:44;5.08;;;2.20;;
47481;SDS011;33219;47.410;9.730;2023-09-19T06:34:23;3.30;;;1.80;;
47481;SDS011;33219;47.410;9.730;2023-09-19T06:42:16;2.83;;;1.45;;
47481;SDS011;33219;47.410;9.730;2023-09-19T06:44:53;6.22;;;2.92;;
47481;SDS011;33219;47.410;9.730;2023-09-19T06:47:22;4.53;;;2.33;;
47481;SDS011;33219;47.410;9.730;2023-09-19T06:49:52;5.70;;;1.70;;
47481;SDS011;33219;47.410;9.730;2023-09-19T06:52:22;3.65;;;1.70;;
47481;SDS011;33219;47.410;9.730;2023-09-19T06:54:52;4.15;;;1.72;;
47481;SDS011;33219;47.410;9.730;2023-09-19T06:57:21;2.47;;;1.32;;
47481;SDS011;33219;47.410;9.730;2023-09-19T06:59:52;2.72;;;1.45;;
47481;SDS011;33219;47.410;9.730;2023-09-19T07:02:22;3.12;;;1.50;;
47481;SDS011;33219;47.410;9.730;2023-09-19T07:04:51;3.45;;;1.70;;
47481;SDS011;33219;47.410;9.730;2023-09-19T07:07:20;3.08;;;1.72;;
47481;SDS011;33219;47.410;9.730;2023-09-19T07:09:50;4.22;;;1.70;;
47481;SDS011;33219;47.410;9.730;2023-09-19T07:12:20;3.43;;;1.70;;
47481;SDS011;33219;47.410;9.730;2023-09-19T07:14:48;2.75;;;1.40;;
47481;SDS011;33219;47.410;9.730;2023-09-19T07:17:18;3.20;;;1.52;;
47481;SDS011;33219;47.410;9.730;2023-09-19T07:19:47;4.42;;;2.20;;
47481;SDS011;33219;47.410;9.730;2023-09-19T07:22:17;4.12;;;1.37;;
47481;SDS011;33219;47.410;9.730;2023-09-19T07:24:47;2.75;;;1.47;;
47481;SDS011;33219;47.410;9.730;2023-09-19T07:27:16;3.75;;;1.50;;
47481;SDS011;33219;47.410;9.730;2023-09-19T07:29:47;2.17;;;1.07;;
47481;SDS011;33219;47.410;9.730;2023-09-19T07:32:17;2.12;;;1.57;;
47481;SDS011;33219;47.410;9.730;2023-09-19T07:37:28;3.05;;;1.52;;
47481;SDS011;33219;47.410;9.730;2023-09-19T07:48:53;3.22;;;1.30;;
47481;SDS011;33219;47.410;9.730;2023-09-19T07:51:28;3.92;;;1.22;;
47481;SDS011;33219;47.410;9.730;2023-09-19T07:54:02;2.40;;;1.20;;
47481;SDS011;33219;47.410;9.730;2023-09-19T08:08:35;2.47;;;1.20;;
47481;SDS011;33219;47.410;9.730;2023-09-19T08:11:35;2.77;;;1.27;;
47481;SDS011;33219;47.410;9.730;2023-09-19T08:14:29;1.85;;;1.07;;
47481;SDS011;33219;47.410;9.730;2023-09-19T08:17:04;3.95;;;1.20;;
47481;SDS011;33219;47.410;9.730;2023-09-19T08:19:43;1.75;;;1.07;;
47481;SDS011;33219;47.410;9.730;2023-09-19T08:22:21;2.40;;;1.00;;
47481;SDS011;33219;47.410;9.730;2023-09-19T08:24:55;1.82;;;1.10;;
47481;SDS011;33219;47.410;9.730;2023-09-19T08:27:33;2.17;;;1.27;;
47481;SDS011;33219;47.410;9.730;2023-09-19T08:33:43;3.25;;;1.10;;
47481;SDS011;33219;47.410;9.730;2023-09-19T08:42:30;2.25;;;1.12;;
47481;SDS011;33219;47.410;9.730;2023-09-19T08:51:45;3.42;;;1.80;;
47481;SDS011;33219;47.410;9.730;2023-09-19T09:01:07;1.30;;;0.85;;
47481;SDS011;33219;47.410;9.730;2023-09-19T09:03:59;1.47;;;0.78;;
47481;SDS011;33219;47.410;9.730;2023-09-19T09:06:36;1.85;;;1.10;;
47481;SDS011;33219;47.410;9.730;2023-09-19T09:09:13;2.22;;;1.10;;
47481;SDS011;33219;47.410;9.730;2023-09-19T09:11:58;1.87;;;1.17;;
47481;SDS011;33219;47.410;9.730;2023-09-19T09:14:34;2.33;;;1.40;;
47481;SDS011;33219;47.410;9.730;2023-09-19T09:17:49;2.92;;;1.15;;
47481;SDS011;33219;47.410;9.730;2023-09-19T09:32:30;3.25;;;1.42;;
47481;SDS011;33219;47.410;9.730;2023-09-19T09:35:03;2.70;;;1.40;;
47481;SDS011;33219;47.410;9.730;2023-09-19T09:37:38;2.35;;;1.27;;
47481;SDS011;33219;47.410;9.730;2023-09-19T09:40:10;2.08;;;1.40;;
47481;SDS011;33219;47.410;9.730;2023-09-19T09:42:45;3.50;;;1.98;;
47481;SDS011;33219;47.410;9.730;2023-09-19T09:45:21;4.58;;;1.72;;
47481;SDS011;33219;47.410;9.730;2023-09-19T09:54:19;2.35;;;1.30;;
47481;SDS011;33219;47.410;9.730;2023-09-19T09:56:52;2.62;;;1.42;;
47481;SDS011;33219;47.410;9.730;2023-09-19T10:02:30;1.98;;;1.32;;
47481;SDS011;33219;47.410;9.730;2023-09-19T10:05:20;2.72;;;1.12;;
47481;SDS011;33219;47.410;9.730;2023-09-19T10:11:04;3.42;;;1.30;;
47481;SDS011;33219;47.410;9.730;2023-09-19T10:13:36;2.75;;;1.50;;
47481;SDS011;33219;47.410;9.730;2023-09-19T10:22:42;1.02;;;0.72;;
47481;SDS011;33219;47.410;9.730;2023-09-19T10:28:13;1.20;;;0.62;;
47481;SDS011;33219;47.410;9.730;2023-09-19T10:30:57;3.67;;;1.15;;
47481;SDS011;33219;47.410;9.730;2023-09-19T10:33:38;2.15;;;0.80;;
47481;SDS011;33219;47.410;9.730;2023-09-19T10:36:32;1.60;;;0.98;;
47481;SDS011;33219;47.410;9.730;2023-09-19T10:39:08;2.55;;;0.72;;
47481;SDS011;33219;47.410;9.730;2023-09-19T10:41:40;1.32;;;0.90;;
47481;SDS011;33219;47.410;9.730;2023-09-19T10:44:16;1.22;;;0.70;;
47481;SDS011;33219;47.410;9.730;2023-09-19T10:47:04;1.22;;;0.75;;
47481;SDS011;33219;47.410;9.730;2023-09-19T10:55:15;1.05;;;0.75;;
47481;SDS011;33219;47.410;9.730;2023-09-19T10:57:46;1.22;;;0.80;;
47481;SDS011;33219;47.410;9.730;2023-09-19T11:00:20;1.25;;;0.80;;
47481;SDS011;33219;47.410;9.730;2023-09-19T11:06:06;2.22;;;0.90;;
47481;SDS011;33219;47.410;9.730;2023-09-19T11:20:22;1.90;;;0.70;;
47481;SDS011;33219;47.410;9.730;2023-09-19T11:28:43;1.75;;;0.90;;
47481;SDS011;33219;47.410;9.730;2023-09-19T11:51:42;1.60;;;0.78;;
47481;SDS011;33219;47.410;9.730;2023-09-19T11:54:11;1.90;;;0.80;;
47481;SDS011;33219;47.410;9.730;2023-09-19T11:56:45;1.35;;;0.50;;
47481;SDS011;33219;47.410;9.730;2023-09-19T11:59:27;1.57;;;0.80;;
47481;SDS011;33219;47.410;9.730;2023-09-19T12:01:55;1.32;;;0.70;;
47481;SDS011;33219;47.410;9.730;2023-09-19T12:04:40;1.15;;;0.60;;
47481;SDS011;33219;47.410;9.730;2023-09-19T12:07:11;2.17;;;0.70;;
47481;SDS011;33219;47.410;9.730;2023-09-19T12:09:44;1.62;;;0.70;;
47481;SDS011;33219;47.410;9.730;2023-09-19T12:12:22;0.88;;;0.80;;
47481;SDS011;33219;47.410;9.730;2023-09-19T12:14:56;1.22;;;0.60;;
47481;SDS011;33219;47.410;9.730;2023-09-19T12:17:38;1.10;;;0.68;;
47481;SDS011;33219;47.410;9.730;2023-09-19T12:20:19;1.42;;;0.88;;
47481;SDS011;33219;47.410;9.730;2023-09-19T12:23:01;1.55;;;0.93;;
47481;SDS011;33219;47.410;9.730;2023-09-19T12:25:52;2.60;;;0.93;;
47481;SDS011;33219;47.410;9.730;2023-09-19T12:28:24;0.90;;;0.70;;
47481;SDS011;33219;47.410;9.730;2023-09-19T12:31:42;2.98;;;1.00;;
47481;SDS011;33219;47.410;9.730;2023-09-19T12:33:34;1.40;;;0.90;;
47481;SDS011;33219;47.410;9.730;2023-09-19T12:36:19;1.37;;;0.75;;
47481;SDS011;33219;47.410;9.730;2023-09-19T12:38:37;1.77;;;0.90;;
47481;SDS011;33219;47.410;9.730;2023-09-19T12:41:11;1.77;;;1.10;;
47481;SDS011;33219;47.410;9.730;2023-09-19T12:43:45;1.27;;;0.65;;
47481;SDS011;33219;47.410;9.730;2023-09-19T12:46:19;2.05;;;1.00;;
47481;SDS011;33219;47.410;9.730;2023-09-19T12:49:20;1.00;;;0.65;;
47481;SDS011;33219;47.410;9.730;2023-09-19T13:04:35;1.72;;;0.93;;
47481;SDS011;33219;47.410;9.730;2023-09-19T13:07:06;1.52;;;0.88;;
47481;SDS011;33219;47.410;9.730;2023-09-19T13:09:37;1.70;;;0.82;;
47481;SDS011;33219;47.410;9.730;2023-09-19T13:12:34;1.98;;;0.98;;
47481;SDS011;33219;47.410;9.730;2023-09-19T13:18:21;2.27;;;0.90;;
47481;SDS011;33219;47.410;9.730;2023-09-19T13:20:44;1.65;;;0.85;;
47481;SDS011;33219;47.410;9.730;2023-09-19T13:23:29;1.35;;;0.90;;
47481;SDS011;33219;47.410;9.730;2023-09-19T13:26:13;2.30;;;1.17;;
47481;SDS011;33219;47.410;9.730;2023-09-19T13:28:48;2.62;;;1.10;;
47481;SDS011;33219;47.410;9.730;2023-09-19T13:31:18;1.75;;;1.07;;
47481;SDS011;33219;47.410;9.730;2023-09-19T13:33:50;2.80;;;0.93;;
47481;SDS011;33219;47.410;9.730;2023-09-19T13:36:18;1.45;;;0.82;;
47481;SDS011;33219;47.410;9.730;2023-09-19T13:38:45;1.45;;;0.80;;
47481;SDS011;33219;47.410;9.730;2023-09-19T13:41:15;2.70;;;0.78;;
47481;SDS011;33219;47.410;9.730;2023-09-19T13:43:42;3.37;;;1.05;;
47481;SDS011;33219;47.410;9.730;2023-09-19T13:46:14;1.00;;;0.72;;
47481;SDS011;33219;47.410;9.730;2023-09-19T13:48:45;1.55;;;0.80;;
47481;SDS011;33219;47.410;9.730;2023-09-19T13:51:17;1.27;;;0.70;;
47481;SDS011;33219;47.410;9.730;2023-09-19T13:53:48;1.12;;;0.85;;
47481;SDS011;33219;47.410;9.730;2023-09-19T13:56:16;1.60;;;0.90;;
47481;SDS011;33219;47.410;9.730;2023-09-19T13:58:44;3.47;;;0.88;;
47481;SDS011;33219;47.410;9.730;2023-09-19T14:01:12;2.05;;;1.00;;
47481;SDS011;33219;47.410;9.730;2023-09-19T14:03:40;1.42;;;1.07;;
47481;SDS011;33219;47.410;9.730;2023-09-19T14:06:13;2.08;;;0.98;;
47481;SDS011;33219;47.410;9.730;2023-09-19T14:16:32;1.07;;;0.65;;
47481;SDS011;33219;47.410;9.730;2023-09-19T14:19:01;1.35;;;1.05;;
47481;SDS011;33219;47.410;9.730;2023-09-19T14:21:29;1.95;;;0.90;;
47481;SDS011;33219;47.410;9.730;2023-09-19T14:23:56;2.55;;;0.80;;
47481;SDS011;33219;47.410;9.730;2023-09-19T14:26:24;1.35;;;1.00;;
47481;SDS011;33219;47.410;9.730;2023-09-19T14:28:52;1.50;;;0.70;;
47481;SDS011;33219;47.410;9.730;2023-09-19T14:31:20;1.50;;;1.20;;
47481;SDS011;33219;47.410;9.730;2023-09-19T14:33:52;0.82;;;0.62;;
47481;SDS011;33219;47.410;9.730;2023-09-19T14:36:22;1.62;;;0.80;;
47481;SDS011;33219;47.410;9.730;2023-09-19T14:38:53;1.90;;;0.90;;
47481;SDS011;33219;47.410;9.730;2023-09-19T14:41:23;1.67;;;0.85;;
47481;SDS011;33219;47.410;9.730;2023-09-19T14:43:51;0.85;;;0.70;;
47481;SDS011;33219;47.410;9.730;2023-09-19T14:46:21;1.15;;;0.70;;
47481;SDS011;33219;47.410;9.730;2023-09-19T14:48:54;0.95;;;0.78;;
47481;SDS011;33219;47.410;9.730;2023-09-19T14:51:29;1.95;;;0.62;;
47481;SDS011;33219;47.410;9.730;2023-09-19T14:53:57;0.70;;;0.60;;
47481;SDS011;33219;47.410;9.730;2023-09-19T14:56:26;1.52;;;0.82;;
47481;SDS011;33219;47.410;9.730;2023-09-19T14:58:59;1.95;;;0.80;;
47481;SDS011;33219;47.410;9.730;2023-09-19T15:03:55;0.98;;;0.65;;
47481;SDS011;33219;47.410;9.730;2023-09-19T15:06:23;1.40;;;0.50;;
47481;SDS011;33219;47.410;9.730;2023-09-19T15:08:52;2.15;;;0.78;;
47481;SDS011;33219;47.410;9.730;2023-09-19T15:11:22;1.98;;;0.70;;
47481;SDS011;33219;47.410;9.730;2023-09-19T15:13:51;1.42;;;0.60;;
47481;SDS011;33219;47.410;9.730;2023-09-19T15:16:21;3.55;;;0.80;;
47481;SDS011;33219;47.410;9.730;2023-09-19T15:18:49;2.60;;;0.98;;
47481;SDS011;33219;47.410;9.730;2023-09-19T15:21:20;2.40;;;0.93;;
47481;SDS011;33219;47.410;9.730;2023-09-19T15:23:50;3.80;;;0.70;;
47481;SDS011;33219;47.410;9.730;2023-09-19T15:26:18;1.17;;;0.70;;
47481;SDS011;33219;47.410;9.730;2023-09-19T15:28:47;2.00;;;1.00;;
47481;SDS011;33219;47.410;9.730;2023-09-19T15:31:16;1.70;;;1.00;;
47481;SDS011;33219;47.410;9.730;2023-09-19T15:33:44;1.47;;;0.82;;
47481;SDS011;33219;47.410;9.730;2023-09-19T15:36:13;0.88;;;0.60;;
47481;SDS011;33219;47.410;9.730;2023-09-19T15:39:01;1.52;;;0.98;;
47481;SDS011;33219;47.410;9.730;2023-09-19T15:41:35;1.37;;;0.85;;
47481;SDS011;33219;47.410;9.730;2023-09-19T15:44:10;1.32;;;0.78;;
47481;SDS011;33219;47.410;9.730;2023-09-19T15:46:44;1.52;;;0.70;;
47481;SDS011;33219;47.410;9.730;2023-09-19T15:49:13;1.70;;;0.80;;
47481;SDS011;33219;47.410;9.730;2023-09-19T15:51:42;0.72;;;0.70;;
47481;SDS011;33219;47.410;9.730;2023-09-19T15:54:14;1.00;;;0.80;;
47481;SDS011;33219;47.410;9.730;2023-09-19T15:56:43;2.05;;;1.17;;
47481;SDS011;33219;47.410;9.730;2023-09-19T15:59:13;0.68;;;0.68;;
47481;SDS011;33219;47.410;9.730;2023-09-19T16:01:41;1.45;;;0.85;;
47481;SDS011;33219;47.410;9.730;2023-09-19T16:04:11;1.00;;;0.78;;
47481;SDS011;33219;47.410;9.730;2023-09-19T16:06:42;1.25;;;0.60;;
47481;SDS011;33219;47.410;9.730;2023-09-19T16:09:10;2.20;;;1.17;;
47481;SDS011;33219;47.410;9.730;2023-09-19T16:11:40;3.35;;;1.27;;
47481;SDS011;33219;47.410;9.730;2023-09-19T16:14:12;1.32;;;0.98;;
47481;SDS011;33219;47.410;9.730;2023-09-19T16:16:42;1.50;;;0.98;;
47481;SDS011;33219;47.410;9.730;2023-09-19T16:19:11;2.77;;;1.20;;
47481;SDS011;33219;47.410;9.730;2023-09-19T16:21:40;3.22;;;1.37;;
47481;SDS011;33219;47.410;9.730;2023-09-19T16:26:45;2.33;;;1.17;;
47481;SDS011;33219;47.410;9.730;2023-09-19T16:29:15;2.85;;;1.10;;
47481;SDS011;33219;47.410;9.730;2023-09-19T16:31:43;3.08;;;1.20;;
47481;SDS011;33219;47.410;9.730;2023-09-19T16:34:12;3.20;;;1.37;;
47481;SDS011;33219;47.410;9.730;2023-09-19T16:36:40;3.72;;;1.10;;
47481;SDS011;33219;47.410;9.730;2023-09-19T16:39:11;2.87;;;1.30;;
47481;SDS011;33219;47.410;9.730;2023-09-19T16:41:39;2.05;;;1.22;;
47481;SDS011;33219;47.410;9.730;2023-09-19T16:44:09;1.50;;;1.10;;
47481;SDS011;33219;47.410;9.730;2023-09-19T16:46:37;5.15;;;1.40;;
47481;SDS011;33219;47.410;9.730;2023-09-19T16:49:08;1.90;;;1.40;;
47481;SDS011;33219;47.410;9.730;2023-09-19T16:54:08;3.80;;;1.12;;
47481;SDS011;33219;47.410;9.730;2023-09-19T16:56:36;2.55;;;1.10;;
47481;SDS011;33219;47.410;9.730;2023-09-19T16:59:05;1.50;;;0.95;;
47481;SDS011;33219;47.410;9.730;2023-09-19T17:01:33;1.72;;;1.10;;
47481;SDS011;33219;47.410;9.730;2023-09-19T17:04:02;2.35;;;1.00;;
47481;SDS011;33219;47.410;9.730;2023-09-19T17:06:32;2.08;;;1.22;;
47481;SDS011;33219;47.410;9.730;2023-09-19T17:09:00;1.22;;;0.90;;
47481;SDS011;33219;47.410;9.730;2023-09-19T17:11:30;2.08;;;0.90;;
47481;SDS011;33219;47.410;9.730;2023-09-19T17:14:00;1.15;;;1.00;;
47481;SDS011;33219;47.410;9.730;2023-09-19T17:16:30;1.72;;;1.00;;
47481;SDS011;33219;47.410;9.730;2023-09-19T17:18:59;1.45;;;0.98;;
47481;SDS011;33219;47.410;9.730;2023-09-19T17:21:34;1.22;;;0.90;;
47481;SDS011;33219;47.410;9.730;2023-09-19T17:24:03;2.70;;;1.10;;
47481;SDS011;33219;47.410;9.730;2023-09-19T17:26:33;1.72;;;0.98;;
47481;SDS011;33219;47.410;9.730;2023-09-19T17:29:03;1.95;;;0.80;;
47481;SDS011;33219;47.410;9.730;2023-09-19T17:34:07;1.77;;;0.90;;
47481;SDS011;33219;47.410;9.730;2023-09-19T17:36:38;1.85;;;1.00;;
47481;SDS011;33219;47.410;9.730;2023-09-19T17:39:10;1.95;;;1.10;;
47481;SDS011;33219;47.410;9.730;2023-09-19T17:41:40;1.07;;;0.90;;
47481;SDS011;33219;47.410;9.730;2023-09-19T17:44:09;1.22;;;0.90;;
47481;SDS011;33219;47.410;9.730;2023-09-19T17:49:10;1.80;;;0.85;;
47481;SDS011;33219;47.410;9.730;2023-09-19T17:51:41;1.60;;;0.75;;
47481;SDS011;33219;47.410;9.730;2023-09-19T17:54:11;1.47;;;0.70;;
47481;SDS011;33219;47.410;9.730;2023-09-19T17:56:40;0.78;;;0.70;;
47481;SDS011;33219;47.410;9.730;2023-09-19T17:59:11;0.78;;;0.55;;
47481;SDS011;33219;47.410;9.730;2023-09-19T18:01:43;3.30;;;0.80;;
47481;SDS011;33219;47.410;9.730;2023-09-19T18:04:13;1.27;;;0.85;;
47481;SDS011;33219;47.410;9.730;2023-09-19T18:06:45;0.93;;;0.80;;
47481;SDS011;33219;47.410;9.730;2023-09-19T18:09:18;1.77;;;0.93;;
47481;SDS011;33219;47.410;9.730;2023-09-19T18:11:48;1.07;;;0.60;;
47481;SDS011;33219;47.410;9.730;2023-09-19T18:14:18;1.05;;;0.68;;
47481;SDS011;33219;47.410;9.730;2023-09-19T18:16:48;0.62;;;0.60;;
47481;SDS011;33219;47.410;9.730;2023-09-19T18:19:18;0.80;;;0.70;;
47481;SDS011;33219;47.410;9.730;2023-09-19T18:21:47;1.00;;;0.60;;
47481;SDS011;33219;47.410;9.730;2023-09-19T18:24:16;0.75;;;0.45;;
47481;SDS011;33219;47.410;9.730;2023-09-19T18:26:47;1.05;;;0.78;;
47481;SDS011;33219;47.410;9.730;2023-09-19T18:29:17;1.45;;;1.05;;
47481;SDS011;33219;47.410;9.730;2023-09-19T18:31:45;1.05;;;0.78;;
47481;SDS011;33219;47.410;9.730;2023-09-19T18:34:14;1.10;;;0.80;;
47481;SDS011;33219;47.410;9.730;2023-09-19T18:36:44;1.35;;;0.88;;
47481;SDS011;33219;47.410;9.730;2023-09-19T18:41:46;1.82;;;0.85;;
47481;SDS011;33219;47.410;9.730;2023-09-19T18:44:18;1.22;;;0.70;;
47481;SDS011;33219;47.410;9.730;2023-09-19T18:46:50;1.10;;;0.75;;